Beijing, China
Current Conditions -  °F | °C
As of 1:00 PM on Sunday 26 Oct 2014 (Local Time) from ZBAA Reporting Station
Clear Clear  
Wind Chill: 61°   Ceiling: Unl
Heat Index: 61°   Visibility: 6mi
Dew Point: 12°   Wind: 13mph
Humidity: 15%   Direction: 40°NE
Pressure: 30.3"   Gusts: NA
Location:  39.93°N, 116.4°E
Report Text: ZBAA 260500Z 04006MPS 010V070 CAVOK 16/M11 Q1026 NOSIG
Loading
Personal Weather Stations






























Interactive Weather Map
Tropical Storm Tracking
New forecast layout! Learn more

10-Day Weather Forecast

Advertisements
Track Severe Weather on mobile